Snow/Ice From: 17-12-2017 10:00 Until: 18-12-2017 06:00 warning for: Snow/Ice Level: Yellow info button

Although rather usual in this region, locally or potentially dangerous phenomena are expected. (such as local winds, summer thunderstorms, rising streams or high waves) Be aware and pay attention to the latest weather updates, especially if you carry out activities exposed to weather or close to a stream or shoreline. 


Meteo18 Weather Cam more information Meteo18 Weather Cam


Thunder radar more information blitzortung!


warning for Snow/Ice more information rain snow radar


Visit our other weather sites:

Template documentation
and downloads

And another site



Nearby METAR Reports

   
LFOA - Avord
Updated: 17-12-2017 14:30
Mostly Cloudy  
Mostly Cloudy  
   Wind: WNW 11.1 km/h
Wind: WNW 11.1 km/h
Temperature: 5°C
Wind Chill: 2°C
Dew Point: 4°C
Humidity: 93%
Barometer: 1027 hPa
Clouds: Mostly Cloudy
Visibility: More than 10 km
Cloud details: Mostly Cloudy 1200 ft,
Mostly Cloudy 2300 ft,
Mostly Cloudy 4000 ft
LFOA 171330Z AUTO 29006KT 9999 BKN012 BKN023 BKN040 05/04 Q1027
LFQG - Nevers
Updated: 17-12-2017 14:30
Overcast  
Overcast  
   Wind: varies 5.6 km/h
Wind: varies 5.6 km/h
Temperature: 4°C
Wind Chill: 3°C
Dew Point: 2°C
Humidity: 87%
Barometer: 1027 hPa
Clouds: Overcast
Visibility: More than 10 km
Cloud details: Mostly Cloudy 1900 ft,
Overcast 3500 ft
LFQG 171330Z AUTO VRB03KT 9999 BKN019 OVC035 04/02 Q1027
LFYR - Romorantin
Updated: 17-12-2017 14:30
Overcast  
Overcast  
   Wind: West 9.3 km/h
Wind: West 9.3 km/h
Temperature: 4°C
Wind Chill: 2°C
Dew Point: 3°C
Humidity: 93%
Barometer: 1028 hPa
Clouds: Overcast
Visibility: More than 10 km
Cloud details: Overcast 500 ft
LFYR 171330Z AUTO 26005KT 220V290 9999 OVC005 04/03 Q1028
LFQB - Troyes
Updated: 17-12-2017 14:30
Overcast  
Overcast  
   Wind: varies 1.9 km/h
Wind: varies 1.9 km/h
Temperature: 3°C
Dew Point: 0°C
Humidity: 81%
Barometer: 1027 hPa
Clouds: Overcast
Visibility: More than 10 km
Cloud details: Overcast 1900 ft
LFQB 171330Z AUTO VRB01KT 9999 OVC019 03/M00 Q1027
  

Script developed by  Saratoga-weather.org Adapted for the template by  Weerstation Leuven

You find our weather info also at:

European Weather Network

Weather Underground

Equipment we use:

Weather-station
Davis Vue

Weather-program
Meteohub

Weather-server
Raspberry PI 2 B+

Provider
1 and 1

Davis Vue

Meteohub

Raspberry PI 2 B+

1 and 1